Terminal Aerodrome Forecast
Issued by NWS

Home | Current Version | Previous Version | Text Only | Print | Product List | Glossary On
Versions: 1 2 3 4 5 6 7 8 9 10 11 12 13 14 15 16 17 18 19 20 21 22 23 24 25 26 27 28 29 30 31 32 33 34 35 36 37 38 39 40 41 42 43 44
000
FTAK31 PAFA 222320 AAA
TAFAQT
TAF AMD
PAQT 222320Z 2223/2324 06020KT 3SM -SHSN BR BKN012 OVC020
     FM231200 09018KT 5SM -SHSN BLSN BR BKN015 OVC025
     FM231800 09015KT P6SM -SHSN BKN015 OVC025=

USA.gov is the U.S. government's official web portal to all federal, state and local government web resources and services.